createdAt,value
2017-12-15T00:00:13.673Z,87.79
2017-12-15T00:02:42.762Z,87.73
2017-12-15T00:05:11.481Z,87.88
2017-12-15T00:07:40.980Z,88.06
2017-12-15T00:10:09.801Z,87.98
2017-12-15T00:12:38.160Z,88.24
2017-12-15T00:15:06.508Z,87.98
2017-12-15T00:17:35.616Z,88.13
2017-12-15T00:20:04.364Z,88.08
2017-12-15T00:22:32.720Z,88.23
2017-12-15T00:25:01.076Z,88.24
2017-12-15T00:27:29.400Z,88.16
2017-12-15T00:29:57.757Z,88.20
2017-12-15T00:32:26.093Z,88.15
2017-12-15T00:34:55.609Z,88.04
2017-12-15T00:37:23.951Z,88.08
2017-12-15T00:39:53.044Z,87.98
2017-12-15T00:42:22.172Z,88.01
2017-12-15T00:44:52.001Z,87.95
2017-12-15T00:47:21.504Z,87.78
2017-12-15T00:49:49.893Z,87.78
2017-12-15T00:52:18.220Z,87.77
2017-12-15T00:54:47.368Z,87.92
2017-12-15T00:57:16.456Z,87.96
2017-12-15T00:59:44.824Z,88.01
2017-12-15T01:02:14.340Z,87.95
2017-12-15T01:04:42.672Z,88.09
2017-12-15T01:07:11.756Z,88.23
2017-12-15T01:09:40.524Z,88.12
2017-12-15T01:12:09.252Z,88.04
2017-12-15T01:14:38.344Z,88.17
2017-12-15T01:17:07.472Z,88.28
2017-12-15T01:19:35.800Z,88.25
2017-12-15T01:22:05.860Z,88.05
2017-12-15T01:24:35.004Z,87.79
2017-12-15T01:27:03.336Z,87.72
2017-12-15T01:29:31.660Z,87.52
2017-12-15T01:32:00.008Z,87.43
2017-12-15T01:34:28.335Z,87.41
2017-12-15T01:36:57.084Z,87.13
2017-12-15T01:39:26.167Z,87.07
2017-12-15T01:41:54.528Z,86.94
2017-12-15T01:44:22.916Z,86.75
2017-12-15T01:46:51.706Z,86.56
2017-12-15T01:49:20.424Z,86.44
2017-12-15T01:51:48.784Z,86.12
2017-12-15T01:54:17.144Z,85.77
2017-12-15T01:56:45.496Z,85.63
2017-12-15T01:59:13.858Z,85.69
2017-12-15T02:01:42.996Z,85.37
2017-12-15T02:04:11.316Z,85.65
2017-12-15T02:06:39.625Z,85.63
2017-12-15T02:09:07.964Z,85.55
2017-12-15T02:11:36.316Z,85.75
2017-12-15T02:14:05.438Z,85.45
2017-12-15T02:16:33.768Z,85.58
2017-12-15T02:19:02.478Z,85.91
2017-12-15T02:21:30.835Z,86.00
2017-12-15T02:23:59.178Z,86.25
2017-12-15T02:26:28.318Z,86.39
2017-12-15T02:28:56.650Z,86.58
2017-12-15T02:31:25.366Z,86.66
2017-12-15T02:33:53.717Z,86.70
2017-12-15T02:36:22.840Z,86.77
2017-12-15T02:38:52.448Z,87.05
2017-12-15T02:41:21.572Z,87.14
2017-12-15T02:43:51.296Z,87.14
2017-12-15T02:46:20.032Z,87.24
2017-12-15T02:48:48.384Z,87.28
2017-12-15T02:51:17.127Z,87.28
2017-12-15T02:53:45.497Z,87.27
2017-12-15T02:56:13.801Z,87.42
2017-12-15T02:58:42.123Z,87.44
2017-12-15T03:01:10.468Z,87.48
2017-12-15T03:03:39.175Z,87.46
2017-12-15T03:06:07.527Z,87.70
2017-12-15T03:08:35.836Z,87.71
2017-12-15T03:11:04.147Z,87.69
2017-12-15T03:13:32.487Z,87.81
2017-12-15T03:16:02.187Z,88.01
2017-12-15T03:18:31.299Z,87.87
2017-12-15T03:21:00.048Z,87.84
2017-12-15T03:23:28.399Z,87.99
2017-12-15T03:25:57.172Z,87.94
2017-12-15T03:28:25.931Z,87.75
2017-12-15T03:30:54.241Z,87.09
2017-12-15T03:33:22.604Z,87.22
2017-12-15T03:35:50.927Z,86.68
2017-12-15T03:38:20.008Z,86.19
2017-12-15T03:40:48.375Z,86.08
2017-12-15T03:43:16.695Z,85.86
2017-12-15T03:45:47.802Z,85.56
2017-12-15T03:48:16.119Z,85.47
2017-12-15T03:50:45.935Z,85.38
2017-12-15T03:53:14.251Z,85.28
2017-12-15T03:55:42.578Z,85.12
2017-12-15T03:58:11.711Z,84.92
2017-12-15T04:00:40.059Z,84.61
2017-12-15T04:03:09.149Z,84.44
2017-12-15T04:05:38.273Z,84.51
2017-12-15T04:08:06.598Z,84.47
2017-12-15T04:10:34.963Z,84.49
2017-12-15T04:13:03.297Z,84.52
2017-12-15T04:15:32.386Z,84.40
2017-12-15T04:18:02.743Z,84.19
2017-12-15T04:20:32.647Z,83.96
2017-12-15T04:23:02.219Z,83.84
2017-12-15T04:25:32.094Z,83.65
2017-12-15T04:28:00.887Z,83.43
2017-12-15T04:30:29.237Z,83.31
2017-12-15T04:32:57.638Z,83.27
2017-12-15T04:35:25.954Z,83.24
2017-12-15T04:37:54.363Z,83.32
2017-12-15T04:40:24.126Z,83.36
2017-12-15T04:42:53.823Z,83.28
2017-12-15T04:45:22.383Z,83.50
2017-12-15T04:47:50.822Z,83.82
2017-12-15T04:50:19.139Z,83.89
2017-12-15T04:52:47.498Z,83.96
2017-12-15T04:55:16.966Z,83.98
2017-12-15T04:57:46.102Z,84.02
2017-12-15T05:00:14.527Z,84.07
2017-12-15T05:02:43.651Z,84.02
2017-12-15T05:05:12.015Z,83.86
2017-12-15T05:07:40.486Z,83.69
2017-12-15T05:10:09.578Z,83.52
2017-12-15T05:12:39.479Z,83.11
2017-12-15T05:15:08.222Z,82.79
2017-12-15T05:17:36.846Z,82.77
2017-12-15T05:20:06.052Z,82.79
2017-12-15T05:22:35.566Z,82.67
2017-12-15T05:25:05.307Z,82.45
2017-12-15T05:27:33.726Z,82.15
2017-12-15T05:30:02.174Z,82.06
2017-12-15T05:32:30.603Z,82.19
2017-12-15T05:35:00.494Z,82.39
2017-12-15T05:37:29.386Z,82.83
2017-12-15T05:39:57.947Z,83.02
2017-12-15T05:42:26.543Z,83.49
2017-12-15T05:44:55.794Z,83.72
2017-12-15T05:47:25.631Z,83.89
2017-12-15T05:49:55.239Z,84.15
2017-12-15T05:52:23.650Z,84.26
2017-12-15T05:54:52.202Z,84.38
2017-12-15T05:57:20.654Z,84.51
2017-12-15T05:59:50.470Z,84.60
2017-12-15T06:02:19.267Z,84.81
2017-12-15T06:04:49.043Z,84.97
2017-12-15T06:07:18.607Z,85.24
2017-12-15T06:09:48.314Z,85.38
2017-12-15T06:12:17.615Z,85.20
2017-12-15T06:14:46.818Z,85.20
2017-12-15T06:17:15.234Z,85.32
2017-12-15T06:19:43.746Z,85.27
2017-12-15T06:22:12.162Z,85.04
2017-12-15T06:24:41.722Z,84.58
2017-12-15T06:27:10.982Z,84.48
2017-12-15T06:29:39.406Z,84.09
2017-12-15T06:32:09.397Z,83.75
2017-12-15T06:34:39.310Z,83.48
2017-12-15T06:37:08.766Z,83.13
2017-12-15T06:39:39.389Z,82.95
2017-12-15T06:42:09.077Z,82.83
2017-12-15T06:44:38.974Z,82.42
2017-12-15T06:47:07.462Z,82.33
2017-12-15T06:49:36.370Z,81.95
2017-12-15T06:52:04.754Z,81.92
2017-12-15T06:54:33.146Z,81.57
2017-12-15T06:57:01.482Z,81.67
2017-12-15T06:59:30.601Z,81.56
2017-12-15T07:01:58.994Z,81.43
2017-12-15T07:04:27.336Z,81.27
2017-12-15T07:06:55.713Z,80.96
2017-12-15T07:09:24.429Z,80.94
2017-12-15T07:11:52.798Z,80.91
2017-12-15T07:14:21.129Z,80.99
2017-12-15T07:16:49.441Z,80.85
2017-12-15T07:19:20.600Z,80.68
2017-12-15T07:21:50.693Z,80.59
2017-12-15T07:24:19.045Z,80.51
2017-12-15T07:26:47.764Z,80.24
2017-12-15T07:29:16.895Z,79.95
2017-12-15T07:31:45.297Z,79.90
2017-12-15T07:34:15.153Z,79.78
2017-12-15T07:36:45.149Z,79.57
2017-12-15T07:39:13.581Z,79.38
2017-12-15T07:41:42.701Z,79.08
2017-12-15T07:44:11.061Z,79.16
2017-12-15T07:46:39.769Z,78.87
2017-12-15T07:49:08.254Z,78.62
2017-12-15T07:51:36.747Z,78.35
2017-12-15T07:54:05.093Z,78.51
2017-12-15T07:56:33.401Z,78.40
2017-12-15T07:59:02.191Z,77.80
2017-12-15T08:01:30.525Z,77.86
2017-12-15T08:03:59.657Z,77.75
2017-12-15T08:06:28.139Z,77.55
2017-12-15T08:08:57.896Z,77.42
2017-12-15T08:11:27.021Z,77.12
2017-12-15T08:13:55.743Z,76.85
2017-12-15T08:16:25.493Z,76.94
2017-12-15T08:18:53.843Z,76.79
2017-12-15T08:21:22.972Z,76.61
2017-12-15T08:23:51.341Z,76.59
2017-12-15T08:26:20.101Z,76.85
2017-12-15T08:28:49.549Z,76.70
2017-12-15T08:31:17.905Z,76.83
2017-12-15T08:33:46.628Z,76.92
2017-12-15T08:36:15.007Z,77.15
2017-12-15T08:38:43.361Z,77.19
2017-12-15T08:41:11.701Z,77.03
2017-12-15T08:43:42.525Z,76.92
2017-12-15T08:46:12.123Z,76.52
2017-12-15T08:48:40.913Z,76.41
2017-12-15T08:51:09.277Z,76.35
2017-12-15T08:53:37.597Z,76.56
2017-12-15T08:56:06.711Z,76.48
2017-12-15T08:58:35.482Z,76.41
2017-12-15T09:01:05.316Z,76.10
2017-12-15T09:03:34.441Z,75.39
2017-12-15T09:06:02.785Z,75.36
2017-12-15T09:08:31.137Z,75.11
2017-12-15T09:11:00.226Z,75.16
2017-12-15T09:13:29.360Z,75.00
2017-12-15T09:15:58.076Z,74.99
2017-12-15T09:18:28.025Z,75.12
2017-12-15T09:20:57.118Z,75.21
2017-12-15T09:23:26.261Z,75.24
2017-12-15T09:25:54.621Z,75.37
2017-12-15T09:28:22.968Z,75.51
2017-12-15T09:30:52.075Z,76.11
2017-12-15T09:33:21.182Z,76.23
2017-12-15T09:35:49.976Z,76.28
2017-12-15T09:38:18.315Z,77.06
2017-12-15T09:40:46.641Z,77.24
2017-12-15T09:43:14.991Z,77.97
2017-12-15T09:45:44.823Z,78.40
2017-12-15T09:48:14.316Z,79.30
2017-12-15T09:50:42.647Z,79.30
2017-12-15T09:53:11.117Z,80.42
2017-12-15T09:55:39.442Z,80.64
2017-12-15T09:58:08.545Z,80.68
2017-12-15T10:00:37.672Z,80.39
2017-12-15T10:03:06.017Z,81.42
2017-12-15T10:05:34.384Z,81.17
2017-12-15T10:08:03.106Z,81.37
2017-12-15T10:10:31.473Z,81.48
2017-12-15T10:13:04.768Z,81.41
2017-12-15T10:15:33.156Z,81.32
2017-12-15T10:18:01.535Z,81.67
2017-12-15T10:20:29.857Z,81.61
2017-12-15T10:22:58.232Z,81.56
2017-12-15T10:25:28.130Z,81.15
2017-12-15T10:27:56.444Z,82.11
2017-12-15T10:30:25.173Z,82.24
2017-12-15T10:32:53.590Z,82.02
2017-12-15T10:35:21.892Z,81.42
2017-12-15T10:37:50.676Z,81.76
2017-12-15T10:40:19.770Z,81.78
2017-12-15T10:42:48.176Z,81.92
2017-12-15T10:45:16.916Z,80.98
2017-12-15T10:47:46.418Z,81.03
2017-12-15T10:50:14.780Z,81.41
2017-12-15T10:52:43.129Z,81.16
2017-12-15T10:55:11.881Z,80.90
2017-12-15T10:57:41.066Z,80.73
2017-12-15T11:00:10.192Z,80.68
2017-12-15T11:02:38.539Z,79.91
2017-12-15T11:05:08.064Z,80.05
2017-12-15T11:07:37.194Z,79.78
2017-12-15T11:10:05.924Z,80.21
2017-12-15T11:12:40.812Z,80.28
2017-12-15T11:15:09.917Z,80.54
2017-12-15T11:17:39.042Z,80.65
2017-12-15T11:20:07.787Z,80.60
2017-12-15T11:22:36.116Z,80.70
2017-12-15T11:25:05.236Z,80.57
2017-12-15T11:27:33.575Z,80.14
2017-12-15T11:30:01.974Z,80.33
2017-12-15T11:32:31.076Z,80.18
2017-12-15T11:34:59.808Z,80.44
2017-12-15T11:37:28.179Z,81.00
2017-12-15T11:39:56.500Z,80.67
2017-12-15T11:42:26.212Z,80.42
2017-12-15T11:44:54.579Z,81.00
2017-12-15T11:47:23.700Z,80.96
2017-12-15T11:49:53.596Z,80.56
2017-12-15T11:52:21.944Z,80.36
2017-12-15T11:54:50.272Z,80.05
2017-12-15T11:57:19.761Z,79.70
2017-12-15T11:59:50.551Z,79.61
2017-12-15T12:05:34.636Z,78.91
2017-12-15T12:08:18.051Z,78.49
2017-12-15T12:14:01.013Z,78.46
2017-12-15T12:16:30.132Z,78.20
2017-12-15T12:19:05.602Z,77.63
2017-12-15T12:21:44.219Z,77.20
2017-12-15T12:24:13.440Z,77.88
2017-12-15T12:26:43.919Z,77.28
2017-12-15T12:29:13.091Z,77.10
2017-12-15T12:31:41.863Z,76.79
2017-12-15T12:34:12.147Z,76.10
2017-12-15T12:36:40.509Z,75.66
2017-12-15T12:39:10.401Z,74.95
2017-12-15T12:41:40.292Z,74.68
2017-12-15T12:44:09.963Z,74.37
2017-12-15T12:46:39.220Z,73.82
2017-12-15T12:49:07.614Z,73.65
2017-12-15T12:51:38.076Z,73.91
2017-12-15T12:54:10.471Z,75.16
2017-12-15T12:56:40.079Z,76.26
2017-12-15T12:59:09.171Z,77.30
2017-12-15T13:01:39.183Z,77.77
2017-12-15T13:04:09.341Z,77.25
2017-12-15T13:06:37.722Z,77.87
2017-12-15T13:09:17.137Z,78.35
2017-12-15T13:11:48.750Z,78.66
2017-12-15T13:14:17.110Z,78.80
2017-12-15T13:16:45.707Z,78.68
2017-12-15T13:19:14.435Z,78.25
2017-12-15T13:21:43.191Z,79.31
2017-12-15T13:24:12.595Z,78.35
2017-12-15T13:26:41.318Z,78.29
2017-12-15T13:29:11.126Z,78.23
2017-12-15T13:31:45.683Z,78.27
2017-12-15T13:34:15.302Z,78.29
2017-12-15T13:36:45.058Z,78.53
2017-12-15T13:39:16.356Z,77.88
2017-12-15T13:41:46.017Z,78.24
2017-12-15T13:44:16.142Z,77.53
2017-12-15T13:46:45.462Z,77.57
2017-12-15T13:49:14.967Z,78.05
2017-12-15T13:51:56.341Z,78.33
2017-12-15T13:54:27.154Z,78.79
2017-12-15T13:56:56.106Z,79.15
2017-12-15T13:59:26.184Z,79.00
2017-12-15T14:01:56.004Z,78.96
2017-12-15T14:04:26.831Z,78.87
2017-12-15T14:06:55.395Z,79.09
2017-12-15T14:09:23.818Z,79.25
2017-12-15T14:11:52.998Z,79.14
2017-12-15T14:14:21.419Z,79.18
2017-12-15T14:16:50.151Z,79.56
2017-12-15T14:19:18.535Z,79.98
2017-12-15T14:21:51.450Z,80.95
2017-12-15T14:24:21.140Z,81.50
2017-12-15T14:26:50.315Z,82.91
2017-12-15T14:29:20.159Z,83.03
2017-12-15T14:31:49.379Z,83.67
2017-12-15T14:34:18.510Z,83.90
2017-12-15T14:36:46.911Z,84.43
2017-12-15T14:39:15.566Z,84.86
2017-12-15T14:41:43.970Z,84.90
2017-12-15T14:44:13.056Z,84.65
2017-12-15T14:46:42.883Z,84.65
2017-12-15T14:49:13.426Z,84.71
2017-12-15T14:51:42.265Z,85.04
2017-12-15T14:54:11.821Z,86.00
2017-12-15T14:56:41.879Z,86.89
2017-12-15T14:59:11.466Z,87.16
2017-12-15T15:01:41.226Z,87.58
2017-12-15T15:04:11.151Z,87.43
2017-12-15T15:06:40.849Z,87.70
2017-12-15T15:09:10.702Z,87.55
2017-12-15T15:11:40.384Z,87.55
2017-12-15T15:14:10.106Z,87.54
2017-12-15T15:16:39.781Z,87.44
2017-12-15T15:19:08.149Z,87.35
2017-12-15T15:21:36.478Z,87.20
2017-12-15T15:24:05.990Z,87.04
2017-12-15T15:26:35.099Z,87.04
2017-12-15T15:29:03.435Z,86.97
2017-12-15T15:31:31.794Z,87.05
2017-12-15T15:34:01.533Z,86.84
2017-12-15T15:36:30.649Z,86.54
2017-12-15T15:38:59.441Z,86.55
2017-12-15T15:41:29.134Z,85.90
2017-12-15T15:43:58.297Z,86.05
2017-12-15T15:46:26.671Z,85.82
2017-12-15T15:48:55.397Z,85.89
2017-12-15T15:51:24.537Z,85.74
2017-12-15T15:53:54.078Z,85.67
2017-12-15T15:56:23.801Z,85.69
2017-12-15T15:58:53.522Z,85.33
2017-12-15T16:01:22.755Z,85.52
2017-12-15T16:03:51.163Z,85.53
2017-12-15T16:06:19.510Z,85.36
2017-12-15T16:08:47.874Z,85.35
2017-12-15T16:11:16.230Z,85.14
2017-12-15T16:13:44.987Z,84.91
2017-12-15T16:16:13.358Z,84.77
2017-12-15T16:18:41.729Z,84.83
2017-12-15T16:21:10.068Z,84.76
2017-12-15T16:23:38.439Z,85.23
2017-12-15T16:26:08.139Z,85.12
2017-12-15T16:28:37.241Z,85.16
2017-12-15T16:31:06.378Z,85.26
2017-12-15T16:33:35.569Z,85.29
2017-12-15T16:36:05.705Z,85.29
2017-12-15T16:38:34.474Z,85.62
2017-12-15T16:41:02.886Z,85.98
2017-12-15T16:43:31.244Z,86.21
2017-12-15T16:46:00.368Z,86.44
2017-12-15T16:48:29.592Z,86.53
2017-12-15T16:50:58.450Z,86.58
2017-12-15T16:53:27.950Z,86.66
2017-12-15T16:55:56.741Z,86.52
2017-12-15T16:58:25.777Z,86.59
2017-12-15T17:00:54.946Z,86.92
2017-12-15T17:03:35.489Z,87.17
2017-12-15T17:06:03.893Z,87.53
2017-12-15T17:08:34.836Z,88.36
2017-12-15T17:11:05.616Z,88.64
2017-12-15T17:13:35.181Z,88.70
2017-12-15T17:16:05.216Z,88.94
2017-12-15T17:18:34.133Z,88.93
2017-12-15T17:21:09.926Z,89.12
2017-12-15T17:23:39.744Z,88.94
2017-12-15T17:26:09.737Z,89.03
2017-12-15T17:28:41.410Z,88.90
2017-12-15T17:31:10.128Z,88.89
2017-12-15T17:33:39.682Z,88.75
2017-12-15T17:36:10.012Z,89.06
2017-12-15T17:38:39.850Z,89.43
2017-12-15T17:41:09.205Z,89.52
2017-12-15T17:43:39.738Z,89.58
2017-12-15T17:46:09.493Z,89.61
2017-12-15T17:48:40.534Z,89.61
2017-12-15T17:51:09.696Z,89.66
2017-12-15T17:53:39.032Z,89.73
2017-12-15T17:56:08.256Z,89.75
2017-12-15T17:58:39.138Z,89.66
2017-12-15T18:01:10.857Z,89.48
2017-12-15T18:03:40.164Z,89.29
2017-12-15T18:06:09.661Z,89.11
2017-12-15T18:08:38.263Z,88.80
2017-12-15T18:11:07.020Z,88.70
2017-12-15T18:13:35.416Z,88.51
2017-12-15T18:16:03.853Z,88.29
2017-12-15T18:18:32.984Z,88.26
2017-12-15T18:21:01.351Z,88.21
2017-12-15T18:23:29.690Z,88.17
2017-12-15T18:25:58.840Z,88.08
2017-12-15T18:28:27.276Z,88.11
2017-12-15T18:30:56.796Z,88.01
2017-12-15T18:33:27.045Z,87.93
2017-12-15T18:35:55.464Z,87.99
2017-12-15T18:38:24.227Z,87.97
2017-12-15T18:40:53.926Z,87.87
2017-12-15T18:43:22.318Z,87.78
2017-12-15T18:45:51.811Z,87.78
2017-12-15T18:48:21.864Z,87.89
2017-12-15T18:50:52.138Z,87.86
2017-12-15T18:53:22.243Z,87.85
2017-12-15T18:55:50.633Z,87.86
2017-12-15T18:58:19.127Z,87.99
2017-12-15T19:00:48.528Z,88.07
2017-12-15T19:03:17.724Z,88.21
2017-12-15T19:05:51.580Z,88.54
2017-12-15T19:08:21.115Z,88.79
2017-12-15T19:10:49.575Z,88.97
2017-12-15T19:13:18.365Z,89.01
2017-12-15T19:15:48.127Z,89.21
2017-12-15T19:18:16.628Z,89.18
2017-12-15T19:20:47.791Z,89.28
2017-12-15T19:23:17.400Z,89.48
2017-12-15T19:25:45.890Z,89.54
2017-12-15T19:28:15.089Z,89.58
2017-12-15T19:30:44.477Z,89.75
2017-12-15T19:33:12.874Z,89.68
2017-12-15T19:35:41.995Z,89.71
2017-12-15T19:38:12.745Z,89.71
2017-12-15T19:40:41.103Z,89.73
2017-12-15T19:43:10.211Z,89.69
2017-12-15T19:45:41.918Z,89.63
2017-12-15T19:48:10.456Z,89.83
2017-12-15T19:50:39.767Z,89.74
2017-12-15T19:53:08.170Z,89.72
2017-12-15T19:55:36.616Z,89.71
2017-12-15T19:58:05.859Z,89.76
2017-12-15T20:00:35.257Z,89.96
2017-12-15T20:03:04.469Z,90.02
2017-12-15T20:05:33.016Z,90.01
2017-12-15T20:08:03.736Z,90.09
2017-12-15T20:10:32.851Z,90.17
2017-12-15T20:13:02.455Z,90.11
2017-12-15T20:15:34.983Z,90.25
2017-12-15T20:18:03.489Z,90.23
2017-12-15T20:20:32.296Z,90.27
2017-12-15T20:23:01.563Z,89.94
2017-12-15T20:25:31.163Z,90.09
2017-12-15T20:28:00.052Z,90.16
2017-12-15T20:30:29.251Z,90.19
2017-12-15T20:32:58.387Z,90.19
2017-12-15T20:35:42.447Z,90.21
2017-12-15T20:38:11.763Z,90.15
2017-12-15T20:40:40.754Z,90.23
2017-12-15T20:43:11.981Z,90.43
2017-12-15T20:45:41.974Z,90.35
2017-12-15T20:48:12.413Z,90.38
2017-12-15T20:50:40.887Z,90.34
2017-12-15T20:53:09.699Z,90.39
2017-12-15T20:55:41.218Z,90.42
2017-12-15T20:58:09.641Z,90.37
2017-12-15T21:00:39.259Z,90.37
2017-12-15T21:03:08.367Z,90.45
2017-12-15T21:05:38.084Z,90.46
2017-12-15T21:08:06.559Z,90.58
2017-12-15T21:10:37.207Z,90.53
2017-12-15T21:13:05.591Z,90.69
2017-12-15T21:15:37.423Z,90.76
2017-12-15T21:18:06.245Z,90.59
2017-12-15T21:20:36.354Z,90.77
2017-12-15T21:23:05.799Z,90.62
2017-12-15T21:25:37.275Z,91.01
2017-12-15T21:28:05.887Z,91.01
2017-12-15T21:30:38.847Z,90.97
2017-12-15T21:33:07.767Z,90.91
2017-12-15T21:35:36.919Z,90.96
2017-12-15T21:38:07.818Z,90.91
2017-12-15T21:40:36.218Z,90.80
2017-12-15T21:43:06.235Z,90.77
2017-12-15T21:45:35.056Z,90.79
2017-12-15T21:48:04.826Z,90.71
2017-12-15T21:50:34.750Z,90.77
2017-12-15T21:53:03.962Z,90.79
2017-12-15T21:55:32.731Z,90.67
2017-12-15T21:58:03.426Z,90.59
2017-12-15T22:00:33.062Z,90.61
2017-12-15T22:03:01.463Z,90.32
2017-12-15T22:05:30.616Z,90.14
2017-12-15T22:07:59.070Z,89.96
2017-12-15T22:10:27.518Z,90.02
2017-12-15T22:12:56.670Z,89.98
2017-12-15T22:15:25.016Z,89.95
2017-12-15T22:17:53.765Z,89.90
2017-12-15T22:20:24.402Z,89.91
2017-12-15T22:22:52.738Z,89.75
2017-12-15T22:25:22.963Z,89.50
2017-12-15T22:27:51.330Z,89.48
2017-12-15T22:30:19.706Z,89.66
2017-12-15T22:32:48.052Z,89.41
2017-12-15T22:35:17.234Z,89.37
2017-12-15T22:37:46.383Z,89.34
2017-12-15T22:40:15.125Z,89.48
2017-12-15T22:42:44.315Z,89.45
2017-12-15T22:45:12.651Z,89.53
2017-12-15T22:47:41.792Z,89.49
2017-12-15T22:50:11.266Z,89.47
2017-12-15T22:52:39.640Z,89.45
2017-12-15T22:55:08.382Z,89.38
2017-12-15T22:57:36.750Z,89.39
2017-12-15T23:00:06.586Z,89.42
2017-12-15T23:02:34.962Z,89.45
2017-12-15T23:05:04.109Z,89.48
2017-12-15T23:07:32.458Z,89.49
2017-12-15T23:10:00.786Z,89.50
2017-12-15T23:12:29.918Z,89.62
2017-12-15T23:14:59.798Z,89.53
2017-12-15T23:17:28.942Z,89.72
2017-12-15T23:19:57.314Z,89.67
2017-12-15T23:22:25.689Z,89.75
2017-12-15T23:24:54.442Z,89.67
2017-12-15T23:27:23.602Z,89.68
2017-12-15T23:29:51.948Z,89.26
2017-12-15T23:32:20.322Z,89.28
2017-12-15T23:34:49.446Z,89.41
2017-12-15T23:37:17.843Z,89.44
2017-12-15T23:39:46.201Z,89.53
2017-12-15T23:42:14.633Z,89.89
2017-12-15T23:44:43.017Z,89.78
2017-12-15T23:47:12.131Z,89.93
2017-12-15T23:49:41.651Z,89.94
2017-12-15T23:52:10.421Z,89.99
2017-12-15T23:54:56.574Z,89.93
2017-12-15T23:57:25.729Z,90.21
2017-12-15T23:59:55.234Z,90.01
